createdAt,value
2018-07-02T00:01:14.790Z,1.00
2018-07-02T00:03:46.209Z,1.03
2018-07-02T00:06:41.797Z,1.10
2018-07-02T00:09:12.419Z,1.00
2018-07-02T00:11:43.636Z,0.90
2018-07-02T00:14:15.017Z,1.10
2018-07-02T00:16:47.350Z,0.83
2018-07-02T00:19:18.851Z,1.10
2018-07-02T00:21:52.084Z,0.80
2018-07-02T00:24:24.391Z,1.00
2018-07-02T00:26:55.912Z,1.00
2018-07-02T00:29:27.329Z,1.00
2018-07-02T00:32:00.262Z,1.00
2018-07-02T00:34:30.934Z,1.00
2018-07-02T00:37:03.966Z,1.00
2018-07-02T00:39:35.527Z,1.10
2018-07-02T00:42:07.048Z,1.40
2018-07-02T00:44:39.583Z,1.10
2018-07-02T00:47:11.826Z,1.00
2018-07-02T00:49:43.927Z,1.03
2018-07-02T00:52:15.447Z,1.10
2018-07-02T00:54:45.942Z,1.00
2018-07-02T00:57:18.114Z,1.10
2018-07-02T00:59:49.683Z,1.00
2018-07-02T01:02:20.877Z,1.10
2018-07-02T01:04:52.459Z,1.00
2018-07-02T01:07:24.439Z,1.00
2018-07-02T01:09:55.412Z,1.00
2018-07-02T01:12:27.467Z,1.30
2018-07-02T01:14:58.916Z,1.10
2018-07-02T01:17:31.184Z,0.90
2018-07-02T01:20:02.463Z,0.90
2018-07-02T01:22:33.024Z,1.00
2018-07-02T01:25:05.103Z,1.03
2018-07-02T01:27:36.290Z,0.90
2018-07-02T01:30:07.787Z,1.10
2018-07-02T01:32:38.521Z,1.20
2018-07-02T01:35:08.879Z,1.00
2018-07-02T01:37:40.052Z,1.07
2018-07-02T01:40:12.348Z,1.00
2018-07-02T01:42:43.829Z,0.80
2018-07-02T01:45:15.216Z,1.00
2018-07-02T01:47:46.608Z,1.17
2018-07-02T01:50:17.177Z,1.00
2018-07-02T01:52:49.885Z,0.90
2018-07-02T01:55:22.015Z,1.07
2018-07-02T01:57:55.947Z,0.80
2018-07-02T02:00:27.418Z,1.00
2018-07-02T02:02:58.830Z,0.90
2018-07-02T02:05:30.120Z,0.90
2018-07-02T02:08:02.292Z,1.00
2018-07-02T02:10:33.741Z,0.90
2018-07-02T02:13:06.130Z,0.90
2018-07-02T02:15:37.698Z,0.80
2018-07-02T02:18:08.289Z,0.93
2018-07-02T02:20:39.532Z,1.00
2018-07-02T02:23:11.504Z,0.90
2018-07-02T02:25:43.450Z,0.97
2018-07-02T02:28:14.106Z,0.90
2018-07-02T02:30:45.408Z,0.90
2018-07-02T02:33:16.676Z,0.90
2018-07-02T02:35:47.190Z,1.00
2018-07-02T02:38:18.555Z,1.00
2018-07-02T02:40:49.897Z,0.80
2018-07-02T02:43:22.103Z,0.80
2018-07-02T02:45:53.656Z,0.90
2018-07-02T02:48:25.416Z,0.90
2018-07-02T02:50:56.706Z,0.90
2018-07-02T02:53:28.244Z,0.80
2018-07-02T02:56:00.626Z,1.00
2018-07-02T02:58:33.409Z,1.00
2018-07-02T03:01:05.028Z,0.90
2018-07-02T03:03:36.620Z,0.83
2018-07-02T03:06:07.973Z,0.90
2018-07-02T03:08:40.491Z,0.93
2018-07-02T03:11:12.626Z,0.97
2018-07-02T03:13:45.421Z,0.97
2018-07-02T03:16:17.058Z,0.80
2018-07-02T03:18:48.240Z,0.90
2018-07-02T03:21:19.698Z,0.83
2018-07-02T03:23:51.030Z,0.70
2018-07-02T03:26:22.347Z,0.83
2018-07-02T03:28:53.734Z,0.90
2018-07-02T03:31:25.235Z,0.80
2018-07-02T03:33:56.496Z,1.00
2018-07-02T03:36:27.835Z,0.93
2018-07-02T03:38:59.124Z,1.00
2018-07-02T03:41:30.553Z,0.90
2018-07-02T03:44:02.271Z,0.70
2018-07-02T03:46:33.693Z,0.80
2018-07-02T03:49:05.858Z,0.80
2018-07-02T03:51:37.437Z,1.00
2018-07-02T03:54:08.743Z,0.80
2018-07-02T03:56:42.616Z,0.80
2018-07-02T03:59:14.201Z,0.80
2018-07-02T04:01:45.823Z,0.70
2018-07-02T04:04:17.779Z,0.70
2018-07-02T04:06:49.209Z,0.77
2018-07-02T04:09:20.557Z,0.60
2018-07-02T04:11:52.201Z,1.00
2018-07-02T04:14:23.291Z,0.90
2018-07-02T04:16:54.285Z,0.77
2018-07-02T04:19:26.119Z,0.80
2018-07-02T04:21:57.485Z,0.70
2018-07-02T04:24:28.580Z,0.80
2018-07-02T04:26:59.619Z,0.77
2018-07-02T04:29:30.207Z,0.87
2018-07-02T04:32:01.035Z,0.70
2018-07-02T04:34:31.953Z,0.90
2018-07-02T04:37:02.973Z,0.80
2018-07-02T04:39:34.894Z,0.73
2018-07-02T04:42:06.008Z,1.00
2018-07-02T04:44:38.137Z,0.93
2018-07-02T04:47:09.161Z,0.90
2018-07-02T04:49:41.531Z,0.90
2018-07-02T04:52:12.761Z,0.80
2018-07-02T04:54:45.938Z,0.70
2018-07-02T04:57:17.131Z,1.00
2018-07-02T04:59:48.294Z,0.90
2018-07-02T05:02:19.209Z,0.80
2018-07-02T05:04:50.537Z,0.90
2018-07-02T05:07:21.953Z,0.73
2018-07-02T05:09:52.706Z,0.90
2018-07-02T05:12:23.369Z,1.20
2018-07-02T05:14:54.138Z,0.83
2018-07-02T05:17:24.789Z,0.80
2018-07-02T05:19:55.465Z,0.80
2018-07-02T05:22:26.708Z,0.90
2018-07-02T05:24:57.888Z,0.90
2018-07-02T05:27:29.647Z,1.20
2018-07-02T05:30:00.751Z,1.00
2018-07-02T05:32:31.951Z,0.90
2018-07-02T05:35:03.676Z,1.00
2018-07-02T05:37:35.387Z,0.80
2018-07-02T05:40:07.595Z,1.13
2018-07-02T05:42:38.771Z,1.00
2018-07-02T05:45:10.760Z,0.80
2018-07-02T05:47:42.001Z,0.83
2018-07-02T05:50:12.754Z,0.90
2018-07-02T05:52:44.002Z,0.80
2018-07-02T05:55:15.334Z,1.00
2018-07-02T05:57:46.597Z,0.90
2018-07-02T06:00:18.268Z,1.00
2018-07-02T06:02:49.677Z,0.90
2018-07-02T06:05:20.849Z,0.90
2018-07-02T06:07:52.880Z,0.83
2018-07-02T06:10:23.527Z,0.90
2018-07-02T06:12:55.688Z,1.00
2018-07-02T06:15:26.639Z,1.00
2018-07-02T06:17:58.108Z,1.00
2018-07-02T06:20:28.429Z,0.90
2018-07-02T06:22:59.879Z,1.10
2018-07-02T06:25:31.256Z,0.90
2018-07-02T06:28:02.591Z,0.97
2018-07-02T06:30:35.052Z,0.80
2018-07-02T06:33:06.861Z,1.03
2018-07-02T06:35:38.496Z,1.10
2018-07-02T06:38:08.756Z,1.00
2018-07-02T06:40:40.039Z,0.90
2018-07-02T06:43:11.649Z,0.90
2018-07-02T06:45:44.003Z,0.90
2018-07-02T06:48:15.482Z,0.97
2018-07-02T06:50:46.794Z,1.00
2018-07-02T06:53:18.338Z,0.90
2018-07-02T06:55:49.633Z,1.00
2018-07-02T06:58:20.723Z,1.10
2018-07-02T07:00:51.883Z,1.33
2018-07-02T07:03:26.900Z,0.90
2018-07-02T07:05:58.187Z,1.00
2018-07-02T07:08:29.475Z,1.17
2018-07-02T07:11:00.647Z,1.10
2018-07-02T07:13:31.996Z,1.00
2018-07-02T07:16:03.345Z,1.20
2018-07-02T07:18:34.551Z,1.13
2018-07-02T07:21:05.904Z,1.10
2018-07-02T07:23:37.121Z,1.10
2018-07-02T07:26:09.336Z,1.20
2018-07-02T07:28:41.591Z,1.03
2018-07-02T07:31:12.902Z,1.20
2018-07-02T07:33:44.086Z,1.10
2018-07-02T07:36:17.203Z,1.30
2018-07-02T07:38:48.509Z,1.30
2018-07-02T07:41:18.733Z,1.30
2018-07-02T07:43:50.118Z,1.10
2018-07-02T07:46:21.063Z,1.30
2018-07-02T07:48:52.337Z,1.17
2018-07-02T07:51:24.609Z,1.50
2018-07-02T07:53:57.225Z,1.20
2018-07-02T07:56:29.040Z,1.37
2018-07-02T07:59:00.407Z,1.40
2018-07-02T08:01:31.866Z,1.20
2018-07-02T08:04:04.214Z,1.40
2018-07-02T08:06:35.692Z,1.57
2018-07-02T08:09:11.328Z,1.30
2018-07-02T08:11:43.223Z,1.30
2018-07-02T08:14:14.440Z,1.40
2018-07-02T08:16:46.215Z,1.10
2018-07-02T08:19:17.603Z,1.50
2018-07-02T08:21:50.307Z,1.40
2018-07-02T08:24:21.513Z,1.17
2018-07-02T08:26:54.122Z,1.40
2018-07-02T08:29:24.653Z,1.27
2018-07-02T08:31:55.773Z,1.00
2018-07-02T08:34:26.966Z,1.10
2018-07-02T08:36:59.122Z,1.13
2018-07-02T08:39:30.395Z,1.20
2018-07-02T08:42:01.590Z,1.00
2018-07-02T08:44:33.127Z,1.13
2018-07-02T08:47:04.996Z,1.30
2018-07-02T08:49:36.324Z,1.20
2018-07-02T08:52:07.645Z,1.10
2018-07-02T08:54:39.825Z,1.53
2018-07-02T08:57:10.760Z,1.50
2018-07-02T08:59:41.963Z,1.40
2018-07-02T09:02:12.659Z,1.00
2018-07-02T09:04:43.745Z,1.30
2018-07-02T09:07:14.439Z,1.10
2018-07-02T09:09:46.261Z,1.30
2018-07-02T09:12:17.629Z,1.00
2018-07-02T09:14:48.894Z,1.10
2018-07-02T09:17:20.766Z,1.30
2018-07-02T09:19:53.039Z,1.10
2018-07-02T09:22:25.076Z,1.30
2018-07-02T09:24:56.337Z,1.10
2018-07-02T09:27:28.450Z,1.30
2018-07-02T09:30:00.136Z,1.20
2018-07-02T09:32:31.534Z,1.40
2018-07-02T09:35:02.481Z,1.20
2018-07-02T09:37:34.321Z,1.00
2018-07-02T09:40:06.049Z,1.10
2018-07-02T09:42:36.725Z,1.00
2018-07-02T09:45:08.249Z,1.27
2018-07-02T09:47:39.186Z,1.00
2018-07-02T09:50:10.530Z,1.30
2018-07-02T09:52:40.845Z,1.00
2018-07-02T09:55:12.577Z,1.10
2018-07-02T09:57:45.701Z,1.00
2018-07-02T10:00:17.599Z,1.00
2018-07-02T10:02:48.776Z,1.10
2018-07-02T10:05:18.909Z,1.10
2018-07-02T10:07:49.969Z,1.00
2018-07-02T10:10:21.022Z,1.20
2018-07-02T10:12:52.105Z,0.87
2018-07-02T10:15:23.242Z,1.00
2018-07-02T10:17:54.339Z,1.10
2018-07-02T10:20:25.336Z,1.10
2018-07-02T10:22:56.969Z,1.20
2018-07-02T10:25:28.626Z,1.20
2018-07-02T10:27:59.638Z,1.10
2018-07-02T10:30:30.335Z,1.17
2018-07-02T10:33:03.306Z,1.10
2018-07-02T10:35:35.027Z,0.83
2018-07-02T10:38:07.067Z,1.10
2018-07-02T10:40:37.765Z,1.10
2018-07-02T10:43:08.469Z,1.10
2018-07-02T10:45:39.135Z,1.20
2018-07-02T10:48:10.149Z,1.10
2018-07-02T10:50:42.537Z,1.20
2018-07-02T10:53:13.213Z,1.23
2018-07-02T10:55:44.442Z,1.20
2018-07-02T10:58:15.655Z,1.20
2018-07-02T11:00:48.081Z,1.27
2018-07-02T11:03:19.483Z,1.23
2018-07-02T11:05:50.926Z,1.10
2018-07-02T11:08:21.545Z,1.23
2018-07-02T11:10:52.205Z,1.20
2018-07-02T11:13:22.432Z,1.27
2018-07-02T11:15:52.998Z,1.00
2018-07-02T11:18:23.642Z,1.20
2018-07-02T11:20:53.639Z,1.20
2018-07-02T11:23:24.140Z,1.00
2018-07-02T11:25:54.875Z,1.20
2018-07-02T11:28:25.557Z,1.20
2018-07-02T11:30:56.196Z,1.17
2018-07-02T11:33:26.885Z,1.30
2018-07-02T11:35:57.530Z,1.00
2018-07-02T11:38:28.277Z,1.27
2018-07-02T11:40:59.179Z,1.17
2018-07-02T11:43:31.612Z,1.03
2018-07-02T11:46:02.993Z,1.03
2018-07-02T11:48:34.040Z,1.07
2018-07-02T11:51:05.231Z,1.20
2018-07-02T11:53:37.441Z,1.10
2018-07-02T11:56:07.725Z,1.30
2018-07-02T11:58:38.694Z,1.10
2018-07-02T12:01:09.701Z,1.00
2018-07-02T12:03:40.655Z,1.33
2018-07-02T12:06:12.769Z,1.27
2018-07-02T12:08:43.016Z,1.23
2018-07-02T12:11:12.996Z,1.20
2018-07-02T12:13:43.988Z,1.03
2018-07-02T12:16:15.765Z,1.40
2018-07-02T12:18:46.914Z,1.20
2018-07-02T12:21:18.090Z,1.20
2018-07-02T12:23:49.193Z,1.40
2018-07-02T12:26:20.293Z,1.20
2018-07-02T12:28:50.964Z,1.10
2018-07-02T12:31:24.702Z,1.27
2018-07-02T12:33:55.714Z,1.20
2018-07-02T12:36:27.515Z,1.20
2018-07-02T12:38:59.230Z,1.20
